Time;durP1;ratioP1;P1;durP2;ratioP2;P2;SDS_P1;SDS_P2;PMS_P1;PMS_P2;Temp;Humidity;BMP_temperature;BMP_pressure;BME280_temperature;BME280_humidity;BME280_pressure;Samples;Min_cycle;Max_cycle;Signal;HPM_P1;HPM_P2
2021/12/05 00:19:57;;;;;;;1.43;1.43;;;;;;;-1.99;73.60;101571.34;6314338;28;20389;-75
2021/12/05 00:23:07;;;;;;;1.30;1.30;;;;;;;-2.25;72.53;101576.97;6315520;28;20190;-75
2021/12/05 00:26:16;;;;;;;1.23;1.23;;;;;;;-2.23;72.19;101573.22;6313644;28;20270;-74
2021/12/05 00:29:28;;;;;;;1.40;1.40;;;;;;;-2.40;72.00;101572.81;6296255;28;20272;-75
2021/12/05 00:32:44;;;;;;;1.20;1.20;;;;;;;-2.30;72.07;101573.81;6314705;28;20192;-74
2021/12/05 00:46:42;;;;;;;1.40;1.40;;;;;;;-2.34;71.89;101596.41;6358418;27;20231;-73
2021/12/05 01:07:42;;;;;;;1.57;1.57;;;;;;;-2.79;72.67;101625.56;6400957;27;20199;-73
2021/12/05 01:11:00;;;;;;;1.30;1.30;;;;;;;-2.65;71.95;101636.09;6366714;28;20256;-74
2021/12/05 01:14:21;;;;;;;1.10;1.10;;;;;;;-2.82;71.65;101635.59;6384638;28;20228;-74
2021/12/05 01:17:32;;;;;;;1.30;1.30;;;;;;;-2.98;71.23;101629.69;6384601;28;20185;-74
2021/12/05 01:20:41;;;;;;;1.97;1.30;;;;;;;-2.96;72.60;101631.28;6383371;28;20183;-74
2021/12/05 01:23:55;;;;;;;1.40;1.40;;;;;;;-2.89;72.21;101632.53;6384427;28;20252;-74
2021/12/05 01:27:09;;;;;;;1.30;1.30;;;;;;;-2.79;71.50;101633.56;6364926;28;20205;-74
2021/12/05 01:30:23;;;;;;;1.70;1.70;;;;;;;-3.19;71.75;101648.13;6364752;28;20372;-74
2021/12/05 01:33:36;;;;;;;1.50;1.50;;;;;;;-3.19;72.06;101651.66;6365947;28;20219;-74
2021/12/05 01:36:52;;;;;;;1.80;1.70;;;;;;;-3.18;73.22;101656.00;6365855;28;20276;-74
2021/12/05 01:40:17;;;;;;;1.40;1.40;;;;;;;-3.41;73.21;101653.25;6384050;28;20183;-74
2021/12/05 01:53:51;;;;;;;1.50;1.50;;;;;;;-3.27;73.09;101666.47;6383104;28;20238;-74
2021/12/05 02:10:56;;;;;;;1.67;1.57;;;;;;;-3.01;72.40;101667.28;6366327;28;20246;-74
2021/12/05 02:31:27;;;;;;;1.67;1.57;;;;;;;-3.23;72.58;101667.97;6380791;27;20247;-73
2021/12/05 02:34:43;;;;;;;1.50;1.50;;;;;;;-3.26;72.93;101684.19;6346373;28;20240;-73
2021/12/05 02:38:09;;;;;;;1.50;1.50;;;;;;;-3.31;72.60;101675.66;6346641;28;20202;-74
2021/12/05 02:41:18;;;;;;;1.33;1.23;;;;;;;-3.47;72.85;101686.56;6346739;28;20198;-74
2021/12/05 02:44:25;;;;;;;1.80;1.80;;;;;;;-3.16;73.07;101677.25;6365483;28;20195;-73
2021/12/05 02:47:32;;;;;;;1.33;1.33;;;;;;;-3.27;72.21;101682.50;6347885;28;20186;-74
2021/12/05 02:50:38;;;;;;;1.37;1.37;;;;;;;-3.36;72.30;101693.78;6346705;28;20271;-74
2021/12/05 02:53:52;;;;;;;1.23;1.23;;;;;;;-3.50;72.87;101696.59;6312791;28;20269;-74
2021/12/05 02:56:58;;;;;;;1.33;1.33;;;;;;;-3.32;71.91;101685.50;6313784;28;20208;-74
2021/12/05 03:00:10;;;;;;;1.50;1.50;;;;;;;-3.66;72.34;101690.59;6346399;28;20200;-74
2021/12/05 03:03:23;;;;;;;1.50;1.50;;;;;;;-3.45;72.42;101700.66;6345727;28;20196;-74
2021/12/05 03:06:32;;;;;;;1.40;1.40;;;;;;;-3.33;71.63;101699.78;6312959;28;20206;-74
2021/12/05 03:09:41;;;;;;;1.70;1.70;;;;;;;-3.46;72.09;101703.41;6312245;28;20230;-74
2021/12/05 03:12:46;;;;;;;1.40;1.40;;;;;;;-3.45;72.63;101705.13;6312815;28;20223;-73
2021/12/05 03:15:50;;;;;;;1.60;1.60;;;;;;;-3.51;72.81;101710.88;6313144;28;20191;-73
2021/12/05 03:18:55;;;;;;;1.70;1.60;;;;;;;-3.42;72.30;101710.25;6345582;28;20268;-74
2021/12/05 03:21:59;;;;;;;1.57;1.47;;;;;;;-3.35;71.82;101722.19;6345920;28;20360;-73
2021/12/05 03:25:08;;;;;;;1.30;1.30;;;;;;;-3.42;71.97;101715.59;6312843;28;20277;-73
2021/12/05 03:28:16;;;;;;;1.47;1.43;;;;;;;-3.75;72.49;101717.91;6345513;28;20184;-74
2021/12/05 03:31:21;;;;;;;1.57;1.57;;;;;;;-3.55;73.19;101731.59;6345795;28;20207;-73
2021/12/05 03:34:28;;;;;;;1.30;1.30;;;;;;;-3.32;72.59;101735.34;6312427;28;20222;-73
2021/12/05 03:37:37;;;;;;;1.30;1.30;;;;;;;-3.43;71.51;101733.41;6312615;28;20237;-74
2021/12/05 03:40:45;;;;;;;1.50;1.50;;;;;;;-3.59;72.34;101734.53;6312082;28;20234;-73
2021/12/05 03:43:57;;;;;;;1.30;1.30;;;;;;;-3.83;72.67;101737.91;6311622;28;20491;-74
2021/12/05 03:47:07;;;;;;;1.40;1.40;;;;;;;-3.64;72.68;101758.00;6311504;28;20381;-73
2021/12/05 03:50:14;;;;;;;1.30;1.30;;;;;;;-3.56;72.23;101761.03;6311878;28;20206;-73
2021/12/05 03:53:22;;;;;;;1.30;1.30;;;;;;;-3.67;72.17;101775.06;6334256;28;20236;-74
2021/12/05 03:56:30;;;;;;;2.50;1.50;;;;;;;-3.97;73.14;101786.00;6336124;28;20199;-73
2021/12/05 03:59:37;;;;;;;1.47;1.47;;;;;;;-3.89;72.79;101786.34;6337108;28;20237;-73
2021/12/05 04:02:42;;;;;;;1.23;1.23;;;;;;;-3.95;72.03;101786.75;6337332;28;20279;-73
2021/12/05 04:05:48;;;;;;;1.70;1.70;;;;;;;-3.90;72.84;101792.63;6336318;28;20199;-73
2021/12/05 04:08:53;;;;;;;1.47;1.47;;;;;;;-3.88;71.89;101785.38;6337145;28;20244;-73
2021/12/05 04:12:02;;;;;;;1.53;1.53;;;;;;;-3.69;71.64;101792.13;6337239;28;20234;-73
2021/12/05 04:15:11;;;;;;;1.40;1.40;;;;;;;-3.73;71.78;101801.31;6335933;28;20223;-73
2021/12/05 04:18:22;;;;;;;1.30;1.30;;;;;;;-3.65;71.65;101799.00;6335868;28;20580;-74
2021/12/05 04:21:29;;;;;;;1.33;1.33;;;;;;;-3.93;71.83;101798.16;6336081;28;20419;-73
2021/12/05 04:24:35;;;;;;;1.30;1.30;;;;;;;-3.87;71.86;101794.22;6336552;28;20266;-73
2021/12/05 04:27:44;;;;;;;3.63;1.50;;;;;;;-3.79;71.36;101802.56;6336241;28;20199;-73
2021/12/05 04:30:49;;;;;;;1.37;1.37;;;;;;;-3.76;72.25;101809.53;6337952;28;20183;-74
2021/12/05 04:33:57;;;;;;;1.60;1.60;;;;;;;-3.74;72.43;101810.25;6336602;28;20231;-74
2021/12/05 04:37:03;;;;;;;1.67;1.57;;;;;;;-3.65;71.68;101815.88;6335751;28;20209;-73
2021/12/05 04:40:12;;;;;;;1.40;1.40;;;;;;;-3.88;72.58;101812.03;6336299;28;20207;-73
2021/12/05 04:43:21;;;;;;;1.33;1.33;;;;;;;-3.77;72.19;101805.16;6335537;28;20213;-73
2021/12/05 04:46:28;;;;;;;1.43;1.43;;;;;;;-4.01;73.89;101824.47;6336232;28;20272;-73
2021/12/05 04:49:34;;;;;;;1.60;1.60;;;;;;;-3.95;73.12;101823.19;6336138;28;20270;-73
2021/12/05 04:52:39;;;;;;;1.90;1.90;;;;;;;-3.95;73.56;101828.53;6336028;28;20310;-73
2021/12/05 04:55:43;;;;;;;3.50;1.77;;;;;;;-3.82;73.51;101824.97;6336255;28;20352;-74
2021/12/05 04:58:53;;;;;;;1.50;1.50;;;;;;;-3.92;73.98;101837.19;6335304;28;20199;-73
2021/12/05 05:02:03;;;;;;;1.50;1.50;;;;;;;-4.09;73.77;101842.78;6336458;28;20272;-73
2021/12/05 05:05:10;;;;;;;1.60;1.60;;;;;;;-3.92;74.72;101839.84;6337406;28;20262;-73
2021/12/05 05:08:15;;;;;;;1.53;1.43;;;;;;;-4.10;74.63;101846.38;6337164;28;20184;-73
2021/12/05 05:11:23;;;;;;;1.70;1.70;;;;;;;-3.99;74.14;101848.34;6337431;28;20186;-73
2021/12/05 05:14:28;;;;;;;1.60;1.50;;;;;;;-3.90;73.72;101845.94;6336867;28;20222;-74
2021/12/05 05:17:33;;;;;;;1.47;1.47;;;;;;;-3.90;73.97;101837.09;6335965;28;20482;-74
2021/12/05 05:20:42;;;;;;;1.50;1.50;;;;;;;-3.65;73.80;101847.00;6336885;28;20184;-73
2021/12/05 05:24:09;;;;;;;1.50;1.50;;;;;;;-3.73;73.65;101860.00;6337010;28;20186;-74
2021/12/05 05:27:41;;;;;;;1.87;1.77;;;;;;;-3.77;74.02;101858.50;6337068;28;20203;-74
2021/12/05 05:41:25;;;;;;;1.83;1.83;;;;;;;-3.60;73.75;101866.22;6342157;28;20184;-74
2021/12/05 05:44:45;;;;;;;1.63;1.63;;;;;;;-4.01;73.29;101883.13;6340578;28;20478;-73
2021/12/05 05:47:59;;;;;;;2.10;2.00;;;;;;;-3.95;73.77;101879.19;6340625;28;20472;-74
2021/12/05 05:51:07;;;;;;;1.67;1.67;;;;;;;-3.73;73.65;101892.00;6345008;28;20264;-74
2021/12/05 05:54:16;;;;;;;2.40;1.70;;;;;;;-3.62;73.71;101887.66;6366591;28;20211;-74
2021/12/05 05:57:25;;;;;;;1.80;1.80;;;;;;;-3.63;73.70;101887.75;6366872;28;20194;-74
2021/12/05 06:00:34;;;;;;;1.70;1.70;;;;;;;-3.61;73.96;101891.19;6366423;28;20182;-74
2021/12/05 06:03:40;;;;;;;1.30;1.30;;;;;;;-3.64;73.23;101897.56;6366840;28;20256;-74
2021/12/05 06:06:45;;;;;;;1.80;1.80;;;;;;;-3.82;73.70;101912.97;6365762;28;20182;-74
2021/12/05 06:09:49;;;;;;;1.60;1.60;;;;;;;-3.89;73.55;101913.47;6365259;28;20206;-74
2021/12/05 06:12:54;;;;;;;1.40;1.40;;;;;;;-3.74;73.71;101915.13;6366296;28;20184;-74
2021/12/05 06:15:58;;;;;;;1.80;1.80;;;;;;;-3.85;74.57;101926.50;6366604;28;20206;-73
2021/12/05 06:19:05;;;;;;;1.90;1.90;;;;;;;-3.85;73.95;101936.28;6366458;28;20183;-72
2021/12/05 06:22:09;;;;;;;1.90;1.90;;;;;;;-3.71;74.28;101933.59;6364888;28;20526;-73
2021/12/05 06:25:20;;;;;;;1.90;1.90;;;;;;;-3.87;73.67;101944.41;6364699;28;20528;-72
2021/12/05 06:28:30;;;;;;;1.63;1.63;;;;;;;-3.92;73.53;101949.19;6366097;28;20295;-73
2021/12/05 06:31:52;;;;;;;1.77;1.67;;;;;;;-4.00;74.10;101954.13;6365895;28;20228;-74
2021/12/05 06:41:59;;;;;;;1.80;1.80;;;;;;;-3.73;73.92;101966.66;6345066;28;20206;-74
2021/12/05 06:48:26;;;;;;;2.40;1.20;;;;;;;-3.86;73.85;101972.78;6365016;28;20188;-74
2021/12/05 06:51:32;;;;;;;1.93;1.83;;;;;;;-3.64;73.34;101977.59;6363979;28;20288;-74
2021/12/05 06:54:38;;;;;;;1.80;1.80;;;;;;;-3.77;73.22;101981.16;6365310;28;20213;-74
2021/12/05 06:57:44;;;;;;;1.57;1.47;;;;;;;-4.03;74.52;101994.31;6364532;28;20251;-73
2021/12/05 07:00:49;;;;;;;1.70;1.70;;;;;;;-3.78;74.00;101995.44;6364221;28;20184;-74
2021/12/05 07:03:53;;;;;;;1.50;1.50;;;;;;;-3.92;74.81;101986.50;6364853;28;20186;-74
2021/12/05 07:06:59;;;;;;;1.83;1.83;;;;;;;-3.94;74.92;101996.41;6365024;28;20183;-74
2021/12/05 07:10:07;;;;;;;2.10;2.00;;;;;;;-3.91;75.21;102004.22;6364608;28;20183;-74
2021/12/05 07:16:43;;;;;;;1.57;1.57;;;;;;;-3.88;75.34;102019.16;6364520;28;20214;-75
2021/12/05 07:19:56;;;;;;;1.40;1.40;;;;;;;-3.86;75.15;102012.78;6364789;28;20191;-74
2021/12/05 07:23:15;;;;;;;1.77;1.77;;;;;;;-3.86;75.69;102026.13;6363324;28;20524;-74
2021/12/05 07:26:28;;;;;;;1.87;1.77;;;;;;;-3.81;75.60;102024.03;6364241;28;20255;-74
2021/12/05 07:43:03;;;;;;;1.37;1.37;;;;;;;-4.08;76.52;102049.72;6364216;28;20340;-74
2021/12/05 07:46:08;;;;;;;1.40;1.40;;;;;;;-3.62;75.26;102049.53;6363854;28;20186;-73
2021/12/05 07:49:13;;;;;;;1.77;1.77;;;;;;;-3.92;74.99;102053.16;6363800;28;20183;-74
2021/12/05 07:52:21;;;;;;;1.57;1.57;;;;;;;-3.76;74.78;102052.19;6363839;28;20300;-74
2021/12/05 07:55:34;;;;;;;1.83;1.83;;;;;;;-3.60;74.01;102066.28;6362586;28;20417;-74
2021/12/05 08:16:07;;;;;;;1.53;1.53;;;;;;;-3.94;74.19;102081.72;6363038;28;20211;-74
2021/12/05 08:19:15;;;;;;;1.50;1.50;;;;;;;-3.71;74.54;102079.44;6363244;28;20206;-74
2021/12/05 08:22:20;;;;;;;1.83;1.83;;;;;;;-3.54;73.42;102079.22;6362634;28;20253;-74
2021/12/05 08:25:29;;;;;;;1.70;1.70;;;;;;;-3.61;73.50;102086.78;6363148;28;20187;-74
2021/12/05 08:32:22;;;;;;;1.60;1.60;;;;;;;-3.82;74.90;102107.63;6327310;28;20205;-74
2021/12/05 08:35:48;;;;;;;1.60;1.60;;;;;;;-3.84;76.00;102104.22;6362460;28;20210;-74
2021/12/05 08:42:41;;;;;;;1.83;1.83;;;;;;;-3.86;75.70;102114.13;6362725;28;20182;-73
2021/12/05 09:26:44;;;;;;;1.70;1.70;;;;;;;-3.42;74.84;102163.88;6293299;28;20195;-74
2021/12/05 09:30:12;;;;;;;1.73;1.73;;;;;;;-3.36;75.38;102159.00;6366310;28;20399;-74
2021/12/05 09:40:29;;;;;;;1.80;1.80;;;;;;;-3.14;75.34;102163.84;6310030;28;20207;-75
2021/12/05 10:07:55;;;;;;;2.23;2.13;;;;;;;-3.29;74.56;102164.81;6315629;28;20190;-73
2021/12/05 10:11:27;;;;;;;2.30;2.20;;;;;;;-3.37;74.91;102167.09;6314924;28;20215;-75
2021/12/05 10:14:46;;;;;;;2.27;2.17;;;;;;;-3.36;75.20;102163.47;6315853;28;20255;-75
2021/12/05 10:18:43;;;;;;;1.83;1.83;;;;;;;-3.61;76.92;102168.59;6315666;28;20251;-73
2021/12/05 10:36:00;;;;;;;1.80;1.77;;;;;;;-3.20;75.11;102159.75;6313798;28;20501;-73
2021/12/05 10:39:10;;;;;;;2.17;2.10;;;;;;;-3.24;74.59;102157.38;6314105;28;20186;-74
2021/12/05 10:42:36;;;;;;;1.87;1.87;;;;;;;-3.07;74.53;102162.50;6313881;28;20253;-74
2021/12/05 10:45:46;;;;;;;1.87;1.77;;;;;;;-3.00;74.34;102160.28;6313573;28;20465;-75
2021/12/05 10:48:54;;;;;;;1.40;1.40;;;;;;;-3.10;74.94;102165.34;6313575;28;20411;-75
2021/12/05 10:52:01;;;;;;;2.20;1.93;;;;;;;-2.94;74.50;102160.75;6336272;28;20236;-74
2021/12/05 10:55:08;;;;;;;1.93;1.83;;;;;;;-3.11;73.80;102173.47;6365171;28;20182;-74
2021/12/05 10:58:14;;;;;;;1.80;1.80;;;;;;;-3.02;74.11;102171.06;6363681;28;20539;-74
2021/12/05 11:01:27;;;;;;;1.83;1.83;;;;;;;-2.77;73.40;102173.00;6365021;28;20185;-75
2021/12/05 11:04:34;;;;;;;1.80;1.80;;;;;;;-2.73;73.91;102175.41;6363787;28;20498;-74
2021/12/05 11:07:39;;;;;;;1.70;1.70;;;;;;;-3.13;73.88;102186.06;6363944;28;20271;-74
2021/12/05 11:10:46;;;;;;;1.80;1.80;;;;;;;-3.29;74.54;102180.84;6364408;28;20186;-75
2021/12/05 11:13:51;;;;;;;2.17;2.07;;;;;;;-3.11;75.34;102176.16;6364744;28;20265;-74
2021/12/05 11:17:03;;;;;;;1.60;1.60;;;;;;;-3.08;74.15;102184.81;6364724;28;20239;-75
2021/12/05 11:20:17;;;;;;;1.60;1.60;;;;;;;-3.14;74.38;102185.22;6363506;28;20183;-75
2021/12/05 11:23:22;;;;;;;1.90;1.90;;;;;;;-2.91;73.92;102181.94;6363344;28;20371;-74
2021/12/05 11:26:26;;;;;;;1.60;1.60;;;;;;;-3.00;75.15;102186.97;6363328;28;20352;-75
2021/12/05 11:29:42;;;;;;;1.50;1.50;;;;;;;-3.15;73.84;102188.81;6364182;28;20248;-75
2021/12/05 11:32:51;;;;;;;1.80;1.80;;;;;;;-3.27;74.33;102189.59;6364144;28;20187;-76
2021/12/05 11:35:58;;;;;;;1.70;1.70;;;;;;;-3.17;74.53;102193.41;6362410;28;20354;-76
2021/12/05 11:39:20;;;;;;;1.20;1.20;;;;;;;-3.13;74.15;102202.91;6363150;28;20263;-75
2021/12/05 11:42:25;;;;;;;2.00;2.00;;;;;;;-3.05;73.59;102208.66;6362860;28;20485;-76
2021/12/05 11:45:48;;;;;;;1.60;1.60;;;;;;;-3.01;73.12;102207.50;6362855;28;20401;-76
2021/12/05 11:48:56;;;;;;;1.73;1.70;;;;;;;-3.03;73.11;102214.75;6363551;28;20251;-76
2021/12/05 11:52:02;;;;;;;1.70;1.70;;;;;;;-2.98;74.25;102210.00;6363014;28;20235;-76
2021/12/05 11:55:20;;;;;;;1.90;1.50;;;;;;;-3.18;74.48;102205.03;6363939;28;20183;-76
2021/12/05 11:58:24;;;;;;;1.67;1.67;;;;;;;-3.16;74.38;102208.47;6363634;28;20215;-75
2021/12/05 12:01:35;;;;;;;1.50;1.50;;;;;;;-3.41;74.79;102225.13;6362792;28;20416;-76
2021/12/05 12:04:50;;;;;;;1.83;1.83;;;;;;;-3.11;73.62;102227.75;6363357;28;20182;-76
2021/12/05 12:08:05;;;;;;;1.60;1.60;;;;;;;-3.12;74.36;102236.69;6363471;28;20257;-74
2021/12/05 12:11:11;;;;;;;1.53;1.53;;;;;;;-3.06;73.34;102246.13;6363470;28;20214;-74
2021/12/05 12:14:15;;;;;;;1.60;1.60;;;;;;;-3.33;72.90;102243.34;6362253;28;20210;-74
2021/12/05 12:17:19;;;;;;;1.60;1.50;;;;;;;-3.11;73.47;102238.41;6362201;28;20280;-74
2021/12/05 12:20:29;;;;;;;1.90;1.90;;;;;;;-3.19;73.24;102246.03;6361760;28;20439;-75
2021/12/05 12:23:33;;;;;;;1.60;1.60;;;;;;;-3.19;73.56;102251.38;6363063;28;20185;-75
2021/12/05 12:26:39;;;;;;;1.93;1.93;;;;;;;-3.35;74.29;102245.25;6362996;28;20247;-74
2021/12/05 12:29:44;;;;;;;1.53;1.43;;;;;;;-3.12;73.68;102242.03;6361896;28;20408;-73
2021/12/05 12:32:50;;;;;;;1.90;1.80;;;;;;;-2.98;72.20;102239.38;6363119;28;20263;-73
2021/12/05 12:35:56;;;;;;;1.73;1.73;;;;;;;-3.26;72.76;102239.34;6362848;28;20183;-73
2021/12/05 12:39:03;;;;;;;1.70;1.70;;;;;;;-3.37;73.42;102241.81;6362708;28;20302;-74
2021/12/05 12:42:18;;;;;;;1.80;1.80;;;;;;;-3.28;74.08;102241.25;6361872;28;20183;-74
2021/12/05 12:45:22;;;;;;;1.90;1.90;;;;;;;-3.09;73.09;102255.19;6361897;28;20192;-74
2021/12/05 12:48:28;;;;;;;1.83;1.70;;;;;;;-3.21;73.58;102253.28;6362555;28;20197;-74
2021/12/05 12:51:37;;;;;;;1.67;1.60;;;;;;;-2.94;73.14;102250.69;6353451;28;20294;-74
2021/12/05 12:54:51;;;;;;;1.43;1.43;;;;;;;-3.22;73.30;102251.56;6362566;28;20220;-74
2021/12/05 12:57:56;;;;;;;3.43;1.80;;;;;;;-3.27;72.87;102249.19;6387192;28;20211;-74
2021/12/05 13:01:02;;;;;;;1.90;1.80;;;;;;;-2.91;72.51;102254.03;6388110;28;20182;-74
2021/12/05 13:11:05;;;;;;;1.50;1.50;;;;;;;-3.27;71.94;102248.31;6365678;28;20200;-73
2021/12/05 13:14:12;;;;;;;1.60;1.60;;;;;;;-3.10;72.59;102256.13;6386832;28;20204;-73
2021/12/05 13:17:39;;;;;;;1.57;1.57;;;;;;;-3.27;72.26;102259.00;6386668;28;20430;-73
2021/12/05 13:20:52;;;;;;;1.73;1.73;;;;;;;-3.26;72.58;102255.34;6387826;28;20251;-74
2021/12/05 13:23:58;;;;;;;1.37;1.37;;;;;;;-3.37;71.92;102263.19;6387448;28;20191;-74
2021/12/05 13:27:05;;;;;;;1.40;1.40;;;;;;;-3.49;72.29;102248.75;6386477;28;20353;-74
2021/12/05 13:30:11;;;;;;;1.60;1.60;;;;;;;-3.50;72.81;102262.19;6386509;28;20214;-74
2021/12/05 13:33:18;;;;;;;1.43;1.43;;;;;;;-3.60;72.77;102263.72;6387337;28;20281;-73
2021/12/05 13:36:32;;;;;;;1.57;1.57;;;;;;;-3.52;72.04;102274.78;6386468;28;20574;-75
2021/12/05 13:39:43;;;;;;;1.70;1.60;;;;;;;-3.51;72.46;102265.81;6387578;28;20263;-75
2021/12/05 13:42:52;;;;;;;2.33;1.87;;;;;;;-3.53;72.40;102270.38;6387548;28;20188;-74
2021/12/05 13:45:58;;;;;;;1.40;1.40;;;;;;;-3.93;73.29;102283.41;6387915;28;20182;-74
2021/12/05 13:49:33;;;;;;;1.47;1.47;;;;;;;-3.83;73.00;102281.91;6387552;28;20201;-73
2021/12/05 13:52:39;;;;;;;1.83;1.83;;;;;;;-3.97;73.18;102276.53;6386991;28;20401;-73
2021/12/05 13:55:59;;;;;;;1.60;1.60;;;;;;;-3.84;72.36;102290.88;6386637;28;20264;-73
2021/12/05 13:59:06;;;;;;;2.27;1.70;;;;;;;-3.78;72.40;102294.13;6387257;27;20216;-73
2021/12/05 14:02:13;;;;;;;1.73;1.73;;;;;;;-3.64;71.25;102286.16;6392074;27;20189;-74
2021/12/05 14:05:28;;;;;;;1.40;1.40;;;;;;;-3.79;72.52;102282.59;6391584;27;20189;-74
2021/12/05 14:08:33;;;;;;;1.70;1.70;;;;;;;-3.96;72.49;102286.28;6390748;27;20480;-74
2021/12/05 14:11:43;;;;;;;1.50;1.50;;;;;;;-3.76;72.12;102292.22;6391256;27;20253;-74
2021/12/05 14:14:51;;;;;;;2.13;1.40;;;;;;;-3.96;71.71;102302.25;6392021;27;20189;-73
2021/12/05 14:17:55;;;;;;;1.87;1.80;;;;;;;-3.80;71.83;102302.25;6391761;27;20206;-75
2021/12/05 14:21:11;;;;;;;1.77;1.70;;;;;;;-3.85;71.82;102321.16;6391390;27;20213;-75
2021/12/05 14:24:17;;;;;;;1.60;1.60;;;;;;;-3.58;71.83;102307.16;6391808;27;20247;-75
2021/12/05 14:27:27;;;;;;;1.43;1.43;;;;;;;-3.64;71.19;102312.84;6391265;27;20189;-74
2021/12/05 14:30:34;;;;;;;1.67;1.67;;;;;;;-3.65;70.88;102324.47;6391327;27;20187;-74
2021/12/05 14:33:50;;;;;;;1.70;1.70;;;;;;;-3.67;70.78;102324.53;6392139;27;20262;-74
2021/12/05 14:36:58;;;;;;;1.47;1.47;;;;;;;-3.54;70.42;102330.03;6390116;27;20184;-74
2021/12/05 14:40:06;;;;;;;1.70;1.70;;;;;;;-3.40;70.64;102333.59;6390907;27;20211;-73
2021/12/05 14:43:14;;;;;;;3.27;1.67;;;;;;;-3.76;70.74;102335.78;6390096;27;20369;-73
2021/12/05 14:46:19;;;;;;;1.97;1.87;;;;;;;-3.89;70.82;102332.94;6390987;27;20214;-74
2021/12/05 14:49:26;;;;;;;1.50;1.50;;;;;;;-3.89;70.62;102338.28;6389650;27;20230;-73
2021/12/05 14:52:33;;;;;;;1.60;1.60;;;;;;;-3.87;71.61;102343.53;6389898;27;20257;-75
2021/12/05 14:55:38;;;;;;;1.60;1.60;;;;;;;-4.00;71.48;102343.38;6390722;27;20220;-74
2021/12/05 14:58:44;;;;;;;1.30;1.30;;;;;;;-4.01;71.76;102351.47;6389465;27;20270;-74
2021/12/05 15:01:53;;;;;;;1.90;1.90;;;;;;;-3.93;71.81;102350.06;6390240;27;20214;-75
2021/12/05 15:04:58;;;;;;;1.40;1.37;;;;;;;-3.87;71.24;102344.38;6390368;27;20251;-74
2021/12/05 15:08:06;;;;;;;1.40;1.40;;;;;;;-3.82;71.50;102344.97;6391580;27;20190;-74
2021/12/05 15:11:10;;;;;;;1.50;1.50;;;;;;;-3.83;71.36;102345.09;6389623;27;20389;-74
2021/12/05 15:14:18;;;;;;;2.80;1.87;;;;;;;-3.65;70.94;102343.16;6390574;27;20183;-75
2021/12/05 15:17:25;;;;;;;1.57;1.57;;;;;;;-3.79;71.02;102351.94;6390155;27;20214;-74
2021/12/05 15:20:32;;;;;;;1.40;1.40;;;;;;;-3.78;71.44;102353.69;6388962;27;20403;-74
2021/12/05 15:23:40;;;;;;;1.70;1.70;;;;;;;-3.68;70.90;102359.31;6390277;27;20181;-74
2021/12/05 15:26:45;;;;;;;1.67;1.60;;;;;;;-3.96;71.98;102371.59;6390662;27;20214;-75
2021/12/05 15:29:52;;;;;;;1.77;1.77;;;;;;;-3.90;72.00;102349.88;6390054;27;20190;-74
2021/12/05 15:33:00;;;;;;;1.70;1.70;;;;;;;-3.97;72.03;102377.84;6389868;27;20220;-74
2021/12/05 15:36:05;;;;;;;1.50;1.50;;;;;;;-4.01;72.19;102379.00;6390040;27;20191;-74
2021/12/05 15:39:19;;;;;;;1.40;1.40;;;;;;;-3.93;71.94;102379.38;6389627;27;20244;-74
2021/12/05 15:42:26;;;;;;;1.13;1.13;;;;;;;-4.04;72.17;102380.97;6389832;27;20213;-74
2021/12/05 15:45:32;;;;;;;1.60;1.60;;;;;;;-3.80;71.50;102388.41;6389664;27;20258;-74
2021/12/05 15:48:39;;;;;;;1.67;1.67;;;;;;;-3.61;71.96;102388.22;6389273;27;20182;-73
2021/12/05 15:51:48;;;;;;;1.97;1.87;;;;;;;-3.77;71.34;102402.53;6388085;27;20421;-73
2021/12/05 15:54:54;;;;;;;1.47;1.47;;;;;;;-4.14;72.18;102401.94;6389182;27;20257;-80
2021/12/05 15:58:03;;;;;;;2.60;1.60;;;;;;;-3.89;71.66;102398.75;6389432;27;20264;-74
2021/12/05 16:01:14;;;;;;;1.40;1.40;;;;;;;-4.01;71.55;102405.66;6389906;27;20206;-75
2021/12/05 16:04:21;;;;;;;1.30;1.30;;;;;;;-4.15;72.13;102413.53;6389547;27;20254;-75
2021/12/05 16:07:28;;;;;;;1.70;1.70;;;;;;;-4.13;71.67;102406.31;6388551;27;20492;-74
2021/12/05 16:10:34;;;;;;;1.50;1.50;;;;;;;-4.18;71.49;102413.69;6388391;27;20188;-74
2021/12/05 16:13:42;;;;;;;1.60;1.60;;;;;;;-4.06;71.94;102413.06;6389026;27;20183;-75
2021/12/05 16:16:48;;;;;;;1.80;1.70;;;;;;;-4.13;71.71;102410.78;6389179;27;20227;-76
2021/12/05 16:20:18;;;;;;;1.63;1.63;;;;;;;-4.05;72.02;102420.06;6388164;27;20216;-74
2021/12/05 16:23:24;;;;;;;1.90;1.90;;;;;;;-3.89;71.19;102426.28;6387478;27;20468;-75
2021/12/05 16:26:30;;;;;;;1.57;1.57;;;;;;;-4.13;71.91;102422.31;6387613;27;20501;-72
2021/12/05 16:29:37;;;;;;;2.03;2.03;;;;;;;-3.95;71.40;102431.94;6388725;27;20218;-73
2021/12/05 16:32:43;;;;;;;1.70;1.70;;;;;;;-3.87;72.09;102429.72;6388845;27;20265;-73
2021/12/05 16:35:51;;;;;;;1.57;1.57;;;;;;;-4.13;72.35;102443.63;6387447;27;20189;-73
2021/12/05 16:38:55;;;;;;;1.70;1.70;;;;;;;-4.35;72.30;102432.44;6387409;27;20182;-73
2021/12/05 16:42:02;;;;;;;2.00;2.00;;;;;;;-3.98;72.19;102437.44;6387634;27;20213;-73
2021/12/05 16:45:07;;;;;;;2.10;1.90;;;;;;;-4.17;71.78;102435.88;6387073;27;20182;-73
2021/12/05 16:48:17;;;;;;;1.73;1.73;;;;;;;-4.23;72.10;102442.41;6388278;27;20250;-73
2021/12/05 16:51:30;;;;;;;5.27;2.40;;;;;;;-3.95;72.45;102439.94;6370037;27;20387;-73
2021/12/05 16:54:37;;;;;;;1.97;1.97;;;;;;;-4.01;71.25;102442.97;6388407;27;20199;-73
2021/12/05 16:57:45;;;;;;;1.80;1.63;;;;;;;-4.17;70.63;102452.75;6387179;28;20348;-73
2021/12/05 17:00:52;;;;;;;5.30;1.90;;;;;;;-4.02;71.68;102441.25;6387124;28;20489;-73
2021/12/05 17:03:59;;;;;;;1.50;1.50;;;;;;;-4.11;71.68;102439.06;6388026;28;20186;-74
2021/12/05 17:07:05;;;;;;;2.20;2.10;;;;;;;-4.44;71.94;102443.56;6387125;28;20533;-73
2021/12/05 17:10:29;;;;;;;1.80;1.70;;;;;;;-4.46;71.76;102450.78;6388634;28;20186;-73
2021/12/05 17:13:36;;;;;;;1.80;1.80;;;;;;;-4.10;71.80;102442.59;6388222;28;20185;-74
2021/12/05 17:16:42;;;;;;;1.67;1.67;;;;;;;-4.14;71.88;102447.25;6388483;28;20189;-75
2021/12/05 17:19:48;;;;;;;1.63;1.60;;;;;;;-4.30;70.92;102451.69;6387681;28;20212;-74
2021/12/05 17:22:59;;;;;;;1.93;1.83;;;;;;;-4.21;70.40;102461.84;6388012;28;20249;-73
2021/12/05 17:26:12;;;;;;;1.60;1.60;;;;;;;-4.33;71.13;102462.50;6388114;28;20449;-73
2021/12/05 17:29:19;;;;;;;2.73;1.70;;;;;;;-4.23;71.70;102469.06;6386619;28;20245;-74
2021/12/05 17:32:24;;;;;;;1.67;1.67;;;;;;;-4.07;70.16;102461.97;6388144;28;20182;-75
2021/12/05 17:35:31;;;;;;;1.80;1.80;;;;;;;-4.38;70.81;102464.56;6391299;27;20218;-74
2021/12/05 17:38:36;;;;;;;2.00;1.90;;;;;;;-4.57;70.95;102474.50;6392663;27;20215;-74
2021/12/05 17:41:42;;;;;;;1.60;1.60;;;;;;;-4.29;70.39;102469.41;6391517;27;20504;-73
2021/12/05 17:44:49;;;;;;;1.83;1.83;;;;;;;-4.50;71.11;102467.88;6391859;27;20189;-74
2021/12/05 17:47:54;;;;;;;1.60;1.60;;;;;;;-4.25;71.33;102470.97;6392463;27;20219;-74
2021/12/05 17:51:03;;;;;;;1.70;1.70;;;;;;;-4.20;71.08;102474.25;6392003;27;20204;-74
2021/12/05 17:54:12;;;;;;;1.60;1.60;;;;;;;-4.09;70.39;102477.19;6390991;27;20182;-74
2021/12/05 17:57:22;;;;;;;1.50;1.50;;;;;;;-4.04;69.77;102480.47;6391523;27;20203;-73
2021/12/05 18:00:38;;;;;;;2.00;2.00;;;;;;;-4.25;69.73;102478.94;6392184;27;20221;-73
2021/12/05 18:03:41;;;;;;;2.20;2.10;;;;;;;-4.38;70.16;102480.56;6391087;27;20496;-73
2021/12/05 18:06:47;;;;;;;1.70;1.70;;;;;;;-4.14;70.66;102483.72;6390977;27;20532;-73
2021/12/05 18:09:52;;;;;;;1.67;1.67;;;;;;;-4.08;69.97;102484.22;6390835;27;20499;-73
2021/12/05 18:12:59;;;;;;;1.73;1.73;;;;;;;-4.13;69.03;102486.28;6392277;27;20183;-74
2021/12/05 18:16:27;;;;;;;1.90;1.90;;;;;;;-4.21;70.10;102488.50;6390650;27;20500;-73
2021/12/05 18:19:32;;;;;;;4.53;1.77;;;;;;;-4.24;69.26;102494.00;6391620;27;20211;-73
2021/12/05 18:22:38;;;;;;;1.90;1.90;;;;;;;-4.38;69.00;102495.66;6390850;27;20384;-73
2021/12/05 18:25:42;;;;;;;1.60;1.60;;;;;;;-4.36;68.74;102494.66;6391032;27;20182;-73
2021/12/05 18:28:49;;;;;;;5.10;1.60;;;;;;;-4.08;67.92;102502.88;6391484;27;20185;-72
2021/12/05 18:31:55;;;;;;;1.80;1.70;;;;;;;-4.32;67.37;102501.56;6391485;27;20189;-74
2021/12/05 18:34:59;;;;;;;1.63;1.63;;;;;;;-4.20;67.60;102497.34;6391277;27;20252;-73
2021/12/05 18:38:10;;;;;;;1.80;1.80;;;;;;;-4.38;67.61;102495.66;6389936;27;20182;-73
2021/12/05 18:41:16;;;;;;;1.60;1.60;;;;;;;-4.55;68.08;102505.44;6390985;27;20272;-73
2021/12/05 18:44:26;;;;;;;1.53;1.53;;;;;;;-4.26;68.00;102501.22;6389820;27;20182;-73